sensor_id;sensor_type;location;lat;lon;timestamp;pressure;altitude;pressure_sealevel;temperature;humidity
54146;BME280;65909;49.422;7.738;2023-03-20T00:03:48;76433.41;;;-145.25;87.97
54146;BME280;65909;49.422;7.738;2023-03-20T00:06:15;76437.44;;;-145.25;88.25
54146;BME280;65909;49.422;7.738;2023-03-20T00:08:45;76425.41;;;-145.25;88.30
54146;BME280;65909;49.422;7.738;2023-03-20T00:13:56;76441.44;;;-145.25;88.06
54146;BME280;65909;49.422;7.738;2023-03-20T00:16:24;76441.44;;;-145.25;87.48
54146;BME280;65909;49.422;7.738;2023-03-20T00:18:51;76441.44;;;-145.25;88.13
54146;BME280;65909;49.422;7.738;2023-03-20T00:21:18;76443.44;;;-145.25;87.85
54146;BME280;65909;49.422;7.738;2023-03-20T00:23:43;76455.47;;;-145.25;88.29
54146;BME280;65909;49.422;7.738;2023-03-20T00:26:16;76467.50;;;-145.25;88.71
54146;BME280;65909;49.422;7.738;2023-03-20T00:28:44;76459.47;;;-145.25;88.58
54146;BME280;65909;49.422;7.738;2023-03-20T00:33:43;76473.50;;;-145.25;89.11
54146;BME280;65909;49.422;7.738;2023-03-20T00:36:09;76473.50;;;-145.25;89.03
54146;BME280;65909;49.422;7.738;2023-03-20T00:38:35;76469.50;;;-145.25;88.84
54146;BME280;65909;49.422;7.738;2023-03-20T00:41:00;76477.53;;;-145.25;89.15
54146;BME280;65909;49.422;7.738;2023-03-20T00:43:26;76479.53;;;-145.25;89.22
54146;BME280;65909;49.422;7.738;2023-03-20T00:45:51;76489.56;;;-145.25;89.52
54146;BME280;65909;49.422;7.738;2023-03-20T00:48:17;76499.56;;;-145.25;89.79
54146;BME280;65909;49.422;7.738;2023-03-20T00:50:42;76497.56;;;-145.25;89.99
54146;BME280;65909;49.422;7.738;2023-03-20T00:53:10;76507.59;;;-145.25;90.06
54146;BME280;65909;49.422;7.738;2023-03-20T00:55:36;76499.56;;;-145.25;90.50
54146;BME280;65909;49.422;7.738;2023-03-20T00:58:03;76489.56;;;-145.25;89.98
54146;BME280;65909;49.422;7.738;2023-03-20T01:00:42;76493.56;;;-145.25;90.13
54146;BME280;65909;49.422;7.738;2023-03-20T01:03:19;76497.56;;;-145.25;90.34
54146;BME280;65909;49.422;7.738;2023-03-20T01:05:47;76505.59;;;-145.25;90.96
54146;BME280;65909;49.422;7.738;2023-03-20T01:08:16;76515.63;;;-145.25;90.88
54146;BME280;65909;49.422;7.738;2023-03-20T01:10:43;76517.63;;;-145.25;90.77
54146;BME280;65909;49.422;7.738;2023-03-20T01:13:24;76519.63;;;-145.25;91.01
54146;BME280;65909;49.422;7.738;2023-03-20T01:15:51;76511.59;;;-145.25;91.22
54146;BME280;65909;49.422;7.738;2023-03-20T01:18:18;76513.63;;;-145.25;91.08
54146;BME280;65909;49.422;7.738;2023-03-20T01:20:44;76519.63;;;-145.25;91.19
54146;BME280;65909;49.422;7.738;2023-03-20T01:23:10;76513.63;;;-145.25;91.02
54146;BME280;65909;49.422;7.738;2023-03-20T01:25:37;76513.63;;;-145.25;91.34
54146;BME280;65909;49.422;7.738;2023-03-20T01:28:11;76507.59;;;-145.25;91.04
54146;BME280;65909;49.422;7.738;2023-03-20T01:30:37;76509.59;;;-145.25;90.87
54146;BME280;65909;49.422;7.738;2023-03-20T01:33:10;76511.59;;;-145.25;91.13
54146;BME280;65909;49.422;7.738;2023-03-20T01:35:37;76501.59;;;-145.25;90.42
54146;BME280;65909;49.422;7.738;2023-03-20T01:38:17;76505.59;;;-145.25;90.74
54146;BME280;65909;49.422;7.738;2023-03-20T01:40:54;76503.59;;;-145.25;90.40
54146;BME280;65909;49.422;7.738;2023-03-20T01:43:22;76503.59;;;-145.25;90.60
54146;BME280;65909;49.422;7.738;2023-03-20T01:46:17;76505.59;;;-145.25;90.63
54146;BME280;65909;49.422;7.738;2023-03-20T01:51:14;76515.63;;;-145.25;90.83
54146;BME280;65909;49.422;7.738;2023-03-20T01:53:39;76521.63;;;-145.25;90.86
54146;BME280;65909;49.422;7.738;2023-03-20T01:56:05;76527.66;;;-145.25;91.04
54146;BME280;65909;49.422;7.738;2023-03-20T01:58:34;76531.66;;;-145.25;91.27
54146;BME280;65909;49.422;7.738;2023-03-20T02:01:03;76529.66;;;-145.25;91.56
54146;BME280;65909;49.422;7.738;2023-03-20T02:03:31;76529.66;;;-145.25;91.35
54146;BME280;65909;49.422;7.738;2023-03-20T02:05:57;76535.66;;;-145.25;91.73
54146;BME280;65909;49.422;7.738;2023-03-20T02:08:27;76529.66;;;-145.25;91.18
54146;BME280;65909;49.422;7.738;2023-03-20T02:10:53;76539.69;;;-145.25;91.76
54146;BME280;65909;49.422;7.738;2023-03-20T02:13:19;76541.69;;;-145.25;91.58
54146;BME280;65909;49.422;7.738;2023-03-20T02:18:34;76543.69;;;-145.25;91.86
54146;BME280;65909;49.422;7.738;2023-03-20T02:21:15;76541.69;;;-145.25;91.68
54146;BME280;65909;49.422;7.738;2023-03-20T02:32:36;76559.72;;;-145.25;92.27
54146;BME280;65909;49.422;7.738;2023-03-20T02:40:40;76573.75;;;-145.25;92.55
54146;BME280;65909;49.422;7.738;2023-03-20T02:48:39;76585.78;;;-145.25;92.33
54146;BME280;65909;49.422;7.738;2023-03-20T02:57:17;76575.75;;;-145.25;92.46
54146;BME280;65909;49.422;7.738;2023-03-20T02:59:59;76585.78;;;-145.25;92.63
54146;BME280;65909;49.422;7.738;2023-03-20T03:05:43;76587.78;;;-145.25;92.40
54146;BME280;65909;49.422;7.738;2023-03-20T03:08:11;76591.81;;;-145.25;92.56
54146;BME280;65909;49.422;7.738;2023-03-20T03:10:51;76591.81;;;-145.25;92.00
54146;BME280;65909;49.422;7.738;2023-03-20T03:13:20;76601.81;;;-145.25;92.12
54146;BME280;65909;49.422;7.738;2023-03-20T03:15:52;76595.81;;;-145.25;92.37
54146;BME280;65909;49.422;7.738;2023-03-20T03:18:20;76593.81;;;-145.25;92.39
54146;BME280;65909;49.422;7.738;2023-03-20T03:20:52;76589.81;;;-145.25;91.91
54146;BME280;65909;49.422;7.738;2023-03-20T03:23:29;76583.78;;;-145.25;91.80
54146;BME280;65909;49.422;7.738;2023-03-20T03:25:56;76603.84;;;-145.25;92.02
54146;BME280;65909;49.422;7.738;2023-03-20T03:28:33;76603.84;;;-145.25;92.48
54146;BME280;65909;49.422;7.738;2023-03-20T03:31:04;76605.84;;;-145.25;92.46
54146;BME280;65909;49.422;7.738;2023-03-20T03:33:31;76609.84;;;-145.25;92.50
54146;BME280;65909;49.422;7.738;2023-03-20T03:38:38;76593.81;;;-145.25;92.15
54146;BME280;65909;49.422;7.738;2023-03-20T03:41:39;76591.81;;;-145.25;91.83
54146;BME280;65909;49.422;7.738;2023-03-20T03:44:26;76597.81;;;-145.25;92.09
54146;BME280;65909;49.422;7.738;2023-03-20T03:47:19;76607.84;;;-145.25;92.26
54146;BME280;65909;49.422;7.738;2023-03-20T03:49:48;76613.84;;;-145.25;92.38
54146;BME280;65909;49.422;7.738;2023-03-20T03:52:19;76613.84;;;-145.25;92.62
54146;BME280;65909;49.422;7.738;2023-03-20T03:54:53;76607.84;;;-145.25;92.27
54146;BME280;65909;49.422;7.738;2023-03-20T03:57:28;76617.88;;;-145.25;92.46
54146;BME280;65909;49.422;7.738;2023-03-20T03:59:56;76627.88;;;-145.25;92.60
54146;BME280;65909;49.422;7.738;2023-03-20T04:02:23;76621.88;;;-145.25;92.35
54146;BME280;65909;49.422;7.738;2023-03-20T04:04:50;76619.88;;;-145.25;92.31
54146;BME280;65909;49.422;7.738;2023-03-20T04:07:17;76631.91;;;-145.25;92.69
54146;BME280;65909;49.422;7.738;2023-03-20T04:09:43;76623.88;;;-145.25;92.45
54146;BME280;65909;49.422;7.738;2023-03-20T04:12:31;76627.88;;;-145.25;92.25
54146;BME280;65909;49.422;7.738;2023-03-20T04:14:56;76627.88;;;-145.25;92.18
54146;BME280;65909;49.422;7.738;2023-03-20T04:17:22;76625.88;;;-145.25;92.53
54146;BME280;65909;49.422;7.738;2023-03-20T04:19:47;76627.88;;;-145.25;92.85
54146;BME280;65909;49.422;7.738;2023-03-20T04:22:13;76619.88;;;-145.25;92.51
54146;BME280;65909;49.422;7.738;2023-03-20T04:24:38;76617.88;;;-145.25;92.56
54146;BME280;65909;49.422;7.738;2023-03-20T04:27:03;76625.88;;;-145.25;92.64
54146;BME280;65909;49.422;7.738;2023-03-20T04:29:29;76631.91;;;-145.25;92.61
54146;BME280;65909;49.422;7.738;2023-03-20T04:31:54;76635.91;;;-145.25;92.30
54146;BME280;65909;49.422;7.738;2023-03-20T04:34:21;76635.91;;;-145.25;92.81
54146;BME280;65909;49.422;7.738;2023-03-20T04:36:47;76645.94;;;-145.25;92.87
54146;BME280;65909;49.422;7.738;2023-03-20T04:39:13;76633.91;;;-145.25;93.05
54146;BME280;65909;49.422;7.738;2023-03-20T04:41:38;76641.94;;;-145.25;92.82
54146;BME280;65909;49.422;7.738;2023-03-20T04:44:05;76633.91;;;-145.25;92.67
54146;BME280;65909;49.422;7.738;2023-03-20T04:46:30;76645.94;;;-145.25;92.75
54146;BME280;65909;49.422;7.738;2023-03-20T04:48:55;76639.91;;;-145.25;93.03
54146;BME280;65909;49.422;7.738;2023-03-20T04:51:21;76633.91;;;-145.25;92.68
54146;BME280;65909;49.422;7.738;2023-03-20T04:53:46;76639.91;;;-145.25;92.72
54146;BME280;65909;49.422;7.738;2023-03-20T04:56:12;76641.94;;;-145.25;92.95
54146;BME280;65909;49.422;7.738;2023-03-20T04:58:37;76641.94;;;-145.25;93.09
54146;BME280;65909;49.422;7.738;2023-03-20T05:01:03;76641.94;;;-145.25;92.95
54146;BME280;65909;49.422;7.738;2023-03-20T05:03:28;76651.94;;;-145.25;92.66
54146;BME280;65909;49.422;7.738;2023-03-20T05:05:53;76635.91;;;-145.25;92.99
54146;BME280;65909;49.422;7.738;2023-03-20T05:08:19;76639.91;;;-145.25;92.57
54146;BME280;65909;49.422;7.738;2023-03-20T05:10:44;76641.94;;;-145.25;92.57
54146;BME280;65909;49.422;7.738;2023-03-20T05:13:10;76649.94;;;-145.25;92.76
54146;BME280;65909;49.422;7.738;2023-03-20T05:15:35;76645.94;;;-145.25;92.94
54146;BME280;65909;49.422;7.738;2023-03-20T05:18:01;76639.91;;;-145.25;92.94
54146;BME280;65909;49.422;7.738;2023-03-20T05:20:26;76645.94;;;-145.25;93.23
54146;BME280;65909;49.422;7.738;2023-03-20T05:22:52;76647.94;;;-145.25;93.19
54146;BME280;65909;49.422;7.738;2023-03-20T05:25:17;76637.91;;;-145.25;93.19
54146;BME280;65909;49.422;7.738;2023-03-20T05:27:43;76633.91;;;-145.25;93.32
54146;BME280;65909;49.422;7.738;2023-03-20T05:30:10;76639.91;;;-145.25;93.09
54146;BME280;65909;49.422;7.738;2023-03-20T05:32:36;76641.94;;;-145.25;93.17
54146;BME280;65909;49.422;7.738;2023-03-20T05:35:01;76631.91;;;-145.25;93.20
54146;BME280;65909;49.422;7.738;2023-03-20T05:37:26;76633.91;;;-145.25;93.26
54146;BME280;65909;49.422;7.738;2023-03-20T05:39:52;76629.91;;;-145.25;93.23
54146;BME280;65909;49.422;7.738;2023-03-20T05:42:17;76619.88;;;-145.25;92.98
54146;BME280;65909;49.422;7.738;2023-03-20T05:44:42;76617.88;;;-145.25;92.58
54146;BME280;65909;49.422;7.738;2023-03-20T05:47:08;76617.88;;;-145.25;92.54
54146;BME280;65909;49.422;7.738;2023-03-20T05:49:33;76625.88;;;-145.25;93.10
54146;BME280;65909;49.422;7.738;2023-03-20T05:51:58;76619.88;;;-145.25;92.88
54146;BME280;65909;49.422;7.738;2023-03-20T05:54:24;76607.84;;;-145.25;92.67
54146;BME280;65909;49.422;7.738;2023-03-20T05:56:49;76581.78;;;-145.25;91.68
54146;BME280;65909;49.422;7.738;2023-03-20T05:59:15;76607.84;;;-145.25;91.87
54146;BME280;65909;49.422;7.738;2023-03-20T06:01:40;76593.81;;;-145.25;91.66
54146;BME280;65909;49.422;7.738;2023-03-20T06:04:06;76581.78;;;-145.25;91.45
54146;BME280;65909;49.422;7.738;2023-03-20T06:06:32;76583.78;;;-145.25;91.37
54146;BME280;65909;49.422;7.738;2023-03-20T06:09:02;76597.81;;;-145.25;91.64
54146;BME280;65909;49.422;7.738;2023-03-20T06:11:28;76595.81;;;-145.25;91.78
54146;BME280;65909;49.422;7.738;2023-03-20T06:13:53;76595.81;;;-145.25;91.56
54146;BME280;65909;49.422;7.738;2023-03-20T06:16:20;76605.84;;;-145.25;91.54
54146;BME280;65909;49.422;7.738;2023-03-20T06:18:45;76603.84;;;-145.25;91.20
54146;BME280;65909;49.422;7.738;2023-03-20T06:21:10;76581.78;;;-145.25;90.93
54146;BME280;65909;49.422;7.738;2023-03-20T06:23:37;76575.75;;;-145.25;90.24
54146;BME280;65909;49.422;7.738;2023-03-20T06:26:03;76579.78;;;-145.25;90.32
54146;BME280;65909;49.422;7.738;2023-03-20T06:28:28;76583.78;;;-145.25;90.11
54146;BME280;65909;49.422;7.738;2023-03-20T06:30:54;76567.75;;;-145.25;89.54
54146;BME280;65909;49.422;7.738;2023-03-20T06:33:19;76517.63;;;-145.25;88.58
54146;BME280;65909;49.422;7.738;2023-03-20T06:35:45;76517.63;;;-145.25;87.41
54146;BME280;65909;49.422;7.738;2023-03-20T06:38:10;76507.59;;;-145.25;87.37
54146;BME280;65909;49.422;7.738;2023-03-20T06:40:37;76493.56;;;-145.25;85.94
54146;BME280;65909;49.422;7.738;2023-03-20T06:43:02;76523.63;;;-145.25;86.43
54146;BME280;65909;49.422;7.738;2023-03-20T06:45:29;76507.59;;;-145.25;86.45
54146;BME280;65909;49.422;7.738;2023-03-20T06:47:54;76477.53;;;-145.25;85.55
54146;BME280;65909;49.422;7.738;2023-03-20T06:50:20;76507.59;;;-145.25;86.01
54146;BME280;65909;49.422;7.738;2023-03-20T06:52:45;76481.53;;;-145.25;85.83
54146;BME280;65909;49.422;7.738;2023-03-20T06:55:10;76471.50;;;-145.25;85.45
54146;BME280;65909;49.422;7.738;2023-03-20T06:57:36;76441.44;;;-145.25;84.48
54146;BME280;65909;49.422;7.738;2023-03-20T07:00:03;76457.47;;;-145.25;84.07
54146;BME280;65909;49.422;7.738;2023-03-20T07:02:29;76451.47;;;-145.25;84.23
54146;BME280;65909;49.422;7.738;2023-03-20T07:04:55;76469.50;;;-145.25;85.50
54146;BME280;65909;49.422;7.738;2023-03-20T07:07:20;76501.59;;;-145.25;84.75
54146;BME280;65909;49.422;7.738;2023-03-20T07:09:45;76515.63;;;-145.25;85.85
54146;BME280;65909;49.422;7.738;2023-03-20T07:12:12;76503.59;;;-145.25;85.03
54146;BME280;65909;49.422;7.738;2023-03-20T07:14:41;76557.72;;;-145.25;86.51
54146;BME280;65909;49.422;7.738;2023-03-20T07:17:08;76497.56;;;-145.25;85.92
54146;BME280;65909;49.422;7.738;2023-03-20T07:19:34;76425.41;;;-145.25;83.36
54146;BME280;65909;49.422;7.738;2023-03-20T07:22:02;76401.34;;;-145.25;81.75
54146;BME280;65909;49.422;7.738;2023-03-20T07:24:29;76409.34;;;-145.25;81.21
54146;BME280;65909;49.422;7.738;2023-03-20T07:26:54;76461.47;;;-145.25;81.54
54146;BME280;65909;49.422;7.738;2023-03-20T07:29:19;76523.63;;;-145.25;85.16
54146;BME280;65909;49.422;7.738;2023-03-20T07:31:45;76449.44;;;-145.25;83.42
54146;BME280;65909;49.422;7.738;2023-03-20T07:34:11;76437.44;;;-145.25;82.41
54146;BME280;65909;49.422;7.738;2023-03-20T07:36:36;76405.34;;;-145.25;81.30
54146;BME280;65909;49.422;7.738;2023-03-20T07:39:02;76401.34;;;-145.25;80.64
54146;BME280;65909;49.422;7.738;2023-03-20T07:41:28;76441.44;;;-145.25;82.04
54146;BME280;65909;49.422;7.738;2023-03-20T07:43:53;76433.41;;;-145.25;81.06
54146;BME280;65909;49.422;7.738;2023-03-20T07:46:18;76407.34;;;-145.25;80.29
54146;BME280;65909;49.422;7.738;2023-03-20T07:48:44;76515.63;;;-145.25;83.45
54146;BME280;65909;49.422;7.738;2023-03-20T07:51:09;76485.53;;;-145.25;83.39
54146;BME280;65909;49.422;7.738;2023-03-20T07:53:34;76511.59;;;-145.25;83.04
54146;BME280;65909;49.422;7.738;2023-03-20T07:56:01;76485.53;;;-145.25;82.85
54146;BME280;65909;49.422;7.738;2023-03-20T07:58:26;76419.38;;;-145.25;81.17
54146;BME280;65909;49.422;7.738;2023-03-20T08:00:52;76393.31;;;-145.25;79.51
54146;BME280;65909;49.422;7.738;2023-03-20T08:03:17;76369.25;;;-145.25;78.55
54146;BME280;65909;49.422;7.738;2023-03-20T08:05:43;76361.25;;;-145.25;78.47
54146;BME280;65909;49.422;7.738;2023-03-20T08:08:08;76345.19;;;-145.25;77.63
54146;BME280;65909;49.422;7.738;2023-03-20T08:10:33;76329.16;;;-145.25;77.01
54146;BME280;65909;49.422;7.738;2023-03-20T08:12:59;76329.16;;;-145.25;76.91
54146;BME280;65909;49.422;7.738;2023-03-20T08:15:24;76353.22;;;-145.25;76.79
54146;BME280;65909;49.422;7.738;2023-03-20T08:17:50;76329.16;;;-145.25;76.77
54146;BME280;65909;49.422;7.738;2023-03-20T08:20:15;76335.19;;;-145.25;75.88
54146;BME280;65909;49.422;7.738;2023-03-20T08:22:43;76353.22;;;-145.25;76.92
54146;BME280;65909;49.422;7.738;2023-03-20T08:25:09;76429.41;;;-145.25;79.24
54146;BME280;65909;49.422;7.738;2023-03-20T08:27:35;76431.41;;;-145.25;80.43
54146;BME280;65909;49.422;7.738;2023-03-20T08:30:01;76397.31;;;-145.25;78.46
54146;BME280;65909;49.422;7.738;2023-03-20T08:32:26;76421.38;;;-145.25;78.78
54146;BME280;65909;49.422;7.738;2023-03-20T08:34:52;76455.47;;;-145.25;80.53
54146;BME280;65909;49.422;7.738;2023-03-20T08:37:19;76431.41;;;-145.25;80.40
54146;BME280;65909;49.422;7.738;2023-03-20T08:39:45;76509.59;;;-145.25;82.61
54146;BME280;65909;49.422;7.738;2023-03-20T08:42:10;76539.69;;;-145.25;80.65
54146;BME280;65909;49.422;7.738;2023-03-20T08:44:35;76541.69;;;-145.25;79.83
54146;BME280;65909;49.422;7.738;2023-03-20T08:47:01;76523.63;;;-145.25;79.15
54146;BME280;65909;49.422;7.738;2023-03-20T08:49:27;76525.63;;;-145.25;77.74
54146;BME280;65909;49.422;7.738;2023-03-20T08:51:53;76521.63;;;-145.25;77.75
54146;BME280;65909;49.422;7.738;2023-03-20T08:54:19;76521.63;;;-145.25;77.10
54146;BME280;65909;49.422;7.738;2023-03-20T08:56:44;76511.59;;;-145.25;76.77
54146;BME280;65909;49.422;7.738;2023-03-20T08:59:11;76497.56;;;-145.25;76.19
54146;BME280;65909;49.422;7.738;2023-03-20T09:01:37;76485.53;;;-145.25;75.51
54146;BME280;65909;49.422;7.738;2023-03-20T09:04:02;76485.53;;;-145.25;75.29
54146;BME280;65909;49.422;7.738;2023-03-20T09:06:28;76497.56;;;-145.25;76.14
54146;BME280;65909;49.422;7.738;2023-03-20T09:08:54;76515.63;;;-145.25;76.56
54146;BME280;65909;49.422;7.738;2023-03-20T09:11:19;76493.56;;;-145.25;76.77
54146;BME280;65909;49.422;7.738;2023-03-20T09:13:45;76451.47;;;-145.25;75.87
54146;BME280;65909;49.422;7.738;2023-03-20T09:16:10;76409.34;;;-145.25;75.00
54146;BME280;65909;49.422;7.738;2023-03-20T09:18:35;76367.25;;;-145.25;73.31
54146;BME280;65909;49.422;7.738;2023-03-20T09:21:01;76321.16;;;-145.25;72.44
54146;BME280;65909;49.422;7.738;2023-03-20T09:23:26;76293.09;;;-145.25;71.02
54146;BME280;65909;49.422;7.738;2023-03-20T09:25:51;76345.19;;;-145.25;71.72
54146;BME280;65909;49.422;7.738;2023-03-20T09:28:17;76329.16;;;-145.25;71.38
54146;BME280;65909;49.422;7.738;2023-03-20T09:30:42;76305.09;;;-145.25;70.49
54146;BME280;65909;49.422;7.738;2023-03-20T09:33:08;76174.81;;;-145.25;67.56
54146;BME280;65909;49.422;7.738;2023-03-20T09:35:33;76180.81;;;-145.25;65.92
54146;BME280;65909;49.422;7.738;2023-03-20T09:37:59;76050.50;;;-145.25;64.06
54146;BME280;65909;49.422;7.738;2023-03-20T09:40:26;76088.59;;;-145.25;62.39
54146;BME280;65909;49.422;7.738;2023-03-20T09:45:44;76092.59;;;-145.25;64.59
54146;BME280;65909;49.422;7.738;2023-03-20T09:48:39;76042.50;;;-145.25;62.72
54146;BME280;65909;49.422;7.738;2023-03-20T09:54:26;76054.53;;;-145.25;63.11
54146;BME280;65909;49.422;7.738;2023-03-20T09:56:55;76074.56;;;-145.25;64.75
54146;BME280;65909;49.422;7.738;2023-03-20T09:59:23;75986.38;;;-145.25;62.73
54146;BME280;65909;49.422;7.738;2023-03-20T10:01:53;75763.84;;;-145.25;57.69
54146;BME280;65909;49.422;7.738;2023-03-20T10:04:19;75759.84;;;-145.25;56.36
54146;BME280;65909;49.422;7.738;2023-03-20T10:06:45;75844.03;;;-145.25;57.21
54146;BME280;65909;49.422;7.738;2023-03-20T10:09:15;75872.09;;;-145.25;58.74
54146;BME280;65909;49.422;7.738;2023-03-20T10:17:10;75811.97;;;-145.25;56.91
54146;BME280;65909;49.422;7.738;2023-03-20T10:19:43;75916.19;;;-145.25;59.86
54146;BME280;65909;49.422;7.738;2023-03-20T10:22:32;76008.41;;;-145.25;61.30
54146;BME280;65909;49.422;7.738;2023-03-20T10:25:22;75924.22;;;-145.25;59.77
54146;BME280;65909;49.422;7.738;2023-03-20T10:30:40;75661.63;;;-145.25;54.93
54146;BME280;65909;49.422;7.738;2023-03-20T10:33:22;75413.09;;;-145.25;50.37
54146;BME280;65909;49.422;7.738;2023-03-20T10:41:13;75641.59;;;-145.25;52.86
54146;BME280;65909;49.422;7.738;2023-03-20T10:43:40;75705.72;;;-145.25;55.18
54146;BME280;65909;49.422;7.738;2023-03-20T10:46:13;75805.94;;;-145.25;56.03
54146;BME280;65909;49.422;7.738;2023-03-20T10:48:44;75918.19;;;-145.25;58.82
54146;BME280;65909;49.422;7.738;2023-03-20T10:51:15;75956.28;;;-145.25;60.39
54146;BME280;65909;49.422;7.738;2023-03-20T10:53:57;75980.34;;;-145.25;61.40
54146;BME280;65909;49.422;7.738;2023-03-20T10:56:35;75948.28;;;-145.25;60.88
54146;BME280;65909;49.422;7.738;2023-03-20T10:59:06;75946.28;;;-145.25;60.60
54146;BME280;65909;49.422;7.738;2023-03-20T11:01:33;75976.34;;;-145.25;60.86
54146;BME280;65909;49.422;7.738;2023-03-20T11:03:58;76008.41;;;-145.25;62.45
54146;BME280;65909;49.422;7.738;2023-03-20T11:06:30;76034.47;;;-145.25;63.32
54146;BME280;65909;49.422;7.738;2023-03-20T11:09:09;76082.59;;;-145.25;64.03
54146;BME280;65909;49.422;7.738;2023-03-20T11:11:37;76128.69;;;-145.25;63.82
54146;BME280;65909;49.422;7.738;2023-03-20T11:14:15;76118.66;;;-145.25;63.93
54146;BME280;65909;49.422;7.738;2023-03-20T11:16:47;76116.66;;;-145.25;63.68
54146;BME280;65909;49.422;7.738;2023-03-20T11:19:13;76092.59;;;-145.25;63.75
54146;BME280;65909;49.422;7.738;2023-03-20T11:21:54;75984.34;;;-145.25;61.64
54146;BME280;65909;49.422;7.738;2023-03-20T11:26:51;75723.75;;;-145.25;54.42
54146;BME280;65909;49.422;7.738;2023-03-20T11:29:28;75832.00;;;-145.25;56.26
54146;BME280;65909;49.422;7.738;2023-03-20T11:32:06;75864.09;;;-145.25;56.71
54146;BME280;65909;49.422;7.738;2023-03-20T11:34:36;75741.81;;;-145.25;54.56
54146;BME280;65909;49.422;7.738;2023-03-20T11:37:12;75711.75;;;-145.25;53.91
54146;BME280;65909;49.422;7.738;2023-03-20T11:39:55;75824.00;;;-145.25;54.83
54146;BME280;65909;49.422;7.738;2023-03-20T11:42:24;75846.03;;;-145.25;55.39
54146;BME280;65909;49.422;7.738;2023-03-20T11:45:02;75815.97;;;-145.25;55.18
54146;BME280;65909;49.422;7.738;2023-03-20T11:47:31;75655.63;;;-145.25;52.09
54146;BME280;65909;49.422;7.738;2023-03-20T11:49:59;75595.47;;;-145.25;50.89
54146;BME280;65909;49.422;7.738;2023-03-20T11:52:32;75707.72;;;-145.25;52.49
54146;BME280;65909;49.422;7.738;2023-03-20T11:54:59;75773.88;;;-145.25;53.00
54146;BME280;65909;49.422;7.738;2023-03-20T11:57:40;75874.09;;;-145.25;54.50
54146;BME280;65909;49.422;7.738;2023-03-20T12:00:25;75759.84;;;-145.25;52.91
54146;BME280;65909;49.422;7.738;2023-03-20T12:02:52;75803.94;;;-145.25;53.77
54146;BME280;65909;49.422;7.738;2023-03-20T12:05:35;75906.19;;;-145.25;55.26
54146;BME280;65909;49.422;7.738;2023-03-20T12:08:36;75846.03;;;-145.25;55.37
54146;BME280;65909;49.422;7.738;2023-03-20T12:13:43;75890.13;;;-145.25;54.95
54146;BME280;65909;49.422;7.738;2023-03-20T12:16:15;75747.81;;;-145.25;52.92
54146;BME280;65909;49.422;7.738;2023-03-20T12:18:55;75824.00;;;-145.25;53.51
54146;BME280;65909;49.422;7.738;2023-03-20T12:21:29;75783.91;;;-145.25;52.09
54146;BME280;65909;49.422;7.738;2023-03-20T12:24:03;75695.69;;;-145.25;51.84
54146;BME280;65909;49.422;7.738;2023-03-20T12:26:53;75729.78;;;-145.25;52.71
54146;BME280;65909;49.422;7.738;2023-03-20T12:29:39;75791.91;;;-145.25;53.38
54146;BME280;65909;49.422;7.738;2023-03-20T12:32:16;75753.84;;;-145.25;53.71
54146;BME280;65909;49.422;7.738;2023-03-20T12:34:51;75799.94;;;-145.25;54.10
54146;BME280;65909;49.422;7.738;2023-03-20T12:37:20;75807.94;;;-145.25;54.02
54146;BME280;65909;49.422;7.738;2023-03-20T12:39:58;75785.91;;;-145.25;54.27
54146;BME280;65909;49.422;7.738;2023-03-20T12:42:48;75807.94;;;-145.25;53.75
54146;BME280;65909;49.422;7.738;2023-03-20T12:45:21;75838.03;;;-145.25;54.53
54146;BME280;65909;49.422;7.738;2023-03-20T12:54:20;75888.13;;;-145.25;56.09
54146;BME280;65909;49.422;7.738;2023-03-20T12:56:30;75878.13;;;-145.25;55.80
54146;BME280;65909;49.422;7.738;2023-03-20T12:59:12;75860.06;;;-145.25;55.66
54146;BME280;65909;49.422;7.738;2023-03-20T13:07:00;75840.03;;;-145.25;55.43
54146;BME280;65909;49.422;7.738;2023-03-20T13:09:57;75846.03;;;-145.25;54.64
54146;BME280;65909;49.422;7.738;2023-03-20T13:15:33;75856.06;;;-145.25;55.24
54146;BME280;65909;49.422;7.738;2023-03-20T13:18:17;75836.00;;;-145.25;55.15
54146;BME280;65909;49.422;7.738;2023-03-20T13:20:49;75876.09;;;-145.25;55.19
54146;BME280;65909;49.422;7.738;2023-03-20T13:39:34;75936.25;;;-145.25;51.58
54146;BME280;65909;49.422;7.738;2023-03-20T13:42:03;75938.25;;;-145.25;51.83
54146;BME280;65909;49.422;7.738;2023-03-20T13:44:31;75932.25;;;-145.25;52.22
54146;BME280;65909;49.422;7.738;2023-03-20T13:47:02;75928.22;;;-145.25;51.43
54146;BME280;65909;49.422;7.738;2023-03-20T13:52:21;75924.22;;;-145.25;49.58
54146;BME280;65909;49.422;7.738;2023-03-20T13:57:40;75896.16;;;-145.25;48.77
54146;BME280;65909;49.422;7.738;2023-03-20T14:00:32;75900.16;;;-145.25;48.75
54146;BME280;65909;49.422;7.738;2023-03-20T14:05:55;75892.16;;;-145.25;49.44
54146;BME280;65909;49.422;7.738;2023-03-20T14:13:36;75910.19;;;-145.25;49.35
54146;BME280;65909;49.422;7.738;2023-03-20T14:16:06;75918.19;;;-145.25;48.94
54146;BME280;65909;49.422;7.738;2023-03-20T14:18:32;75940.25;;;-145.25;48.75
54146;BME280;65909;49.422;7.738;2023-03-20T14:21:02;75916.19;;;-145.25;48.20
54146;BME280;65909;49.422;7.738;2023-03-20T14:23:38;75912.19;;;-145.25;49.53
54146;BME280;65909;49.422;7.738;2023-03-20T14:26:19;75940.25;;;-145.25;48.89
54146;BME280;65909;49.422;7.738;2023-03-20T14:34:21;75970.31;;;-145.25;48.75
54146;BME280;65909;49.422;7.738;2023-03-20T14:37:01;75992.38;;;-145.25;47.78
54146;BME280;65909;49.422;7.738;2023-03-20T14:39:38;75972.34;;;-145.25;47.34
54146;BME280;65909;49.422;7.738;2023-03-20T14:45:05;75974.34;;;-145.25;47.36
54146;BME280;65909;49.422;7.738;2023-03-20T14:50:34;75970.31;;;-145.25;47.63
54146;BME280;65909;49.422;7.738;2023-03-20T14:53:21;75992.38;;;-145.25;47.47
54146;BME280;65909;49.422;7.738;2023-03-20T15:03:41;75982.34;;;-145.25;48.37
54146;BME280;65909;49.422;7.738;2023-03-20T15:06:08;76008.41;;;-145.25;47.65